createdAt,value
2018-12-30T00:01:15.588Z,3.90
2018-12-30T00:03:47.410Z,3.90
2018-12-30T00:06:19.182Z,4.00
2018-12-30T00:08:50.993Z,4.00
2018-12-30T00:11:22.386Z,4.00
2018-12-30T00:13:53.848Z,4.00
2018-12-30T00:16:25.281Z,4.00
2018-12-30T00:18:56.540Z,4.00
2018-12-30T00:21:27.820Z,4.00
2018-12-30T00:23:59.088Z,4.10
2018-12-30T00:26:30.397Z,4.20
2018-12-30T00:29:01.993Z,4.20
2018-12-30T00:31:33.107Z,4.20
2018-12-30T00:34:04.480Z,4.10
2018-12-30T00:36:35.686Z,4.10
2018-12-30T00:39:08.198Z,4.10
2018-12-30T00:41:39.452Z,4.10
2018-12-30T00:44:10.798Z,4.10
2018-12-30T00:46:42.003Z,4.10
2018-12-30T00:49:13.463Z,4.00
2018-12-30T00:51:45.066Z,3.90
2018-12-30T00:54:16.427Z,3.90
2018-12-30T00:56:48.114Z,3.90
2018-12-30T00:59:19.544Z,3.90
2018-12-30T01:01:50.912Z,3.90
2018-12-30T01:04:22.575Z,4.00
2018-12-30T01:06:53.964Z,3.90
2018-12-30T01:09:25.564Z,3.90
2018-12-30T01:11:57.061Z,4.00
2018-12-30T01:14:28.873Z,3.90
2018-12-30T01:17:00.226Z,3.90
2018-12-30T01:19:31.664Z,3.90
2018-12-30T01:22:02.953Z,3.90
2018-12-30T01:24:34.164Z,3.90
2018-12-30T01:27:05.875Z,3.90
2018-12-30T01:29:37.301Z,3.80
2018-12-30T01:32:08.827Z,3.90
2018-12-30T01:34:40.342Z,3.80
2018-12-30T01:37:11.717Z,3.80
2018-12-30T01:39:43.006Z,3.70
2018-12-30T01:42:14.371Z,3.70
2018-12-30T01:44:45.766Z,3.80
2018-12-30T01:47:17.442Z,3.80
2018-12-30T01:49:49.871Z,3.70
2018-12-30T01:52:21.094Z,3.80
2018-12-30T01:54:52.704Z,3.70
2018-12-30T01:57:23.949Z,3.70
2018-12-30T01:59:55.423Z,3.70
2018-12-30T02:02:26.691Z,3.70
2018-12-30T02:04:57.946Z,3.70
2018-12-30T02:07:29.136Z,3.70
2018-12-30T02:10:00.890Z,3.90
2018-12-30T02:12:32.155Z,4.00
2018-12-30T02:15:03.543Z,4.10
2018-12-30T02:17:53.467Z,4.00
2018-12-30T02:20:24.905Z,3.90
2018-12-30T02:22:56.033Z,3.80
2018-12-30T02:25:27.590Z,3.70
2018-12-30T02:27:59.029Z,3.70
2018-12-30T02:30:30.739Z,3.70
2018-12-30T02:33:02.013Z,3.70
2018-12-30T02:35:33.414Z,3.80
2018-12-30T02:38:04.723Z,3.80
2018-12-30T02:40:36.596Z,3.90
2018-12-30T02:43:07.734Z,3.80
2018-12-30T02:45:38.882Z,3.80
2018-12-30T02:48:10.343Z,3.80
2018-12-30T02:50:41.846Z,3.80
2018-12-30T02:53:13.198Z,3.80
2018-12-30T02:55:44.792Z,3.80
2018-12-30T02:58:16.120Z,3.70
2018-12-30T03:00:47.512Z,3.80
2018-12-30T03:03:18.700Z,3.80
2018-12-30T03:05:50.165Z,3.80
2018-12-30T03:08:21.488Z,3.80
2018-12-30T03:10:52.970Z,3.80
2018-12-30T03:13:24.241Z,3.90
2018-12-30T03:15:55.530Z,3.80
2018-12-30T03:18:26.868Z,3.80
2018-12-30T03:20:58.320Z,3.80
2018-12-30T03:23:29.359Z,3.80
2018-12-30T03:26:00.751Z,3.80
2018-12-30T03:28:32.037Z,3.80
2018-12-30T03:31:03.558Z,3.80
2018-12-30T03:33:34.829Z,3.90
2018-12-30T03:36:06.524Z,4.00
2018-12-30T03:38:37.693Z,4.00
2018-12-30T03:41:09.000Z,4.10
2018-12-30T03:43:40.169Z,4.10
2018-12-30T03:46:11.639Z,4.10
2018-12-30T03:48:42.867Z,4.10
2018-12-30T03:51:14.413Z,4.20
2018-12-30T03:53:45.845Z,4.10
2018-12-30T03:56:17.240Z,4.00
2018-12-30T03:58:48.635Z,4.00
2018-12-30T04:01:19.842Z,4.00
2018-12-30T04:03:51.024Z,4.00
2018-12-30T04:06:22.556Z,4.00
2018-12-30T04:08:53.966Z,4.00
2018-12-30T04:11:25.619Z,4.00
2018-12-30T04:13:56.766Z,4.00
2018-12-30T04:16:28.832Z,3.90
2018-12-30T04:19:00.279Z,4.00
2018-12-30T04:21:32.137Z,3.90
2018-12-30T04:24:03.532Z,4.00
2018-12-30T04:26:35.119Z,4.00
2018-12-30T04:29:06.392Z,4.00
2018-12-30T04:31:37.789Z,3.90
2018-12-30T04:34:09.027Z,3.90
2018-12-30T04:36:40.374Z,4.00
2018-12-30T04:39:11.699Z,4.00
2018-12-30T04:41:43.154Z,4.00
2018-12-30T04:44:14.497Z,4.10
2018-12-30T04:46:45.949Z,4.10
2018-12-30T04:49:17.160Z,4.10
2018-12-30T04:51:48.494Z,4.10
2018-12-30T04:54:19.467Z,4.10
2018-12-30T04:56:51.004Z,4.10
2018-12-30T04:59:22.155Z,4.10
2018-12-30T05:01:53.740Z,4.10
2018-12-30T05:04:24.891Z,4.10
2018-12-30T05:06:56.172Z,4.00
2018-12-30T05:09:27.302Z,4.00
2018-12-30T05:11:58.536Z,3.90
2018-12-30T05:14:29.891Z,4.00
2018-12-30T05:17:01.525Z,4.00
2018-12-30T05:19:33.177Z,3.90
2018-12-30T05:22:04.495Z,3.80
2018-12-30T05:24:35.656Z,3.90
2018-12-30T05:27:07.254Z,3.90
2018-12-30T05:29:38.768Z,3.90
2018-12-30T05:32:10.087Z,3.90
2018-12-30T05:34:41.425Z,3.80
2018-12-30T05:37:12.860Z,3.80
2018-12-30T05:39:44.220Z,3.80
2018-12-30T05:42:15.749Z,3.80
2018-12-30T05:44:47.165Z,3.80
2018-12-30T05:47:18.637Z,3.70
2018-12-30T05:49:50.329Z,3.70
2018-12-30T05:52:21.683Z,3.70
2018-12-30T05:55:04.649Z,3.70
2018-12-30T05:57:35.867Z,3.70
2018-12-30T06:00:08.417Z,3.70
2018-12-30T06:02:39.509Z,3.70
2018-12-30T06:05:10.662Z,3.70
2018-12-30T06:07:42.078Z,3.80
2018-12-30T06:10:13.420Z,3.80
2018-12-30T06:12:44.810Z,3.90
2018-12-30T06:15:27.493Z,3.90
2018-12-30T06:17:58.808Z,4.10
2018-12-30T06:20:30.180Z,4.20
2018-12-30T06:23:01.391Z,4.30
2018-12-30T06:25:33.024Z,4.30
2018-12-30T06:28:05.155Z,4.40
2018-12-30T06:30:36.595Z,4.50
2018-12-30T06:33:08.113Z,4.60
2018-12-30T06:35:40.681Z,4.70
2018-12-30T06:38:12.022Z,4.80
2018-12-30T06:40:43.254Z,5.00
2018-12-30T06:43:14.613Z,5.40
2018-12-30T06:45:46.561Z,5.70
2018-12-30T06:48:17.800Z,5.70
2018-12-30T06:50:49.737Z,5.80
2018-12-30T06:53:21.121Z,5.80
2018-12-30T06:55:52.777Z,5.90
2018-12-30T06:58:24.081Z,6.00
2018-12-30T07:00:55.425Z,6.20
2018-12-30T07:03:26.538Z,6.30
2018-12-30T07:05:57.556Z,6.50
2018-12-30T07:08:28.889Z,6.90
2018-12-30T07:11:00.382Z,7.20
2018-12-30T07:13:31.666Z,7.50
2018-12-30T07:16:02.906Z,7.20
2018-12-30T07:18:34.492Z,6.70
2018-12-30T07:21:05.686Z,6.40
2018-12-30T07:23:37.053Z,6.20
2018-12-30T07:26:08.487Z,6.00
2018-12-30T07:28:40.036Z,5.80
2018-12-30T07:31:11.317Z,5.80
2018-12-30T07:33:42.676Z,6.10
2018-12-30T07:36:13.940Z,6.30
2018-12-30T07:38:45.158Z,6.50
2018-12-30T07:41:16.884Z,6.90
2018-12-30T07:43:48.302Z,7.40
2018-12-30T07:46:19.851Z,7.50
2018-12-30T07:48:51.626Z,7.50
2018-12-30T07:51:23.095Z,7.40
2018-12-30T07:53:54.271Z,7.90
2018-12-30T07:56:25.788Z,8.40
2018-12-30T07:58:56.962Z,8.90
2018-12-30T08:01:29.397Z,9.20
2018-12-30T08:04:00.824Z,9.40
2018-12-30T08:06:32.186Z,9.80
2018-12-30T08:09:04.654Z,9.90
2018-12-30T08:11:36.047Z,10.20
2018-12-30T08:14:07.592Z,10.70
2018-12-30T08:16:39.077Z,10.90
2018-12-30T08:19:10.463Z,11.10
2018-12-30T08:21:41.989Z,11.30
2018-12-30T08:24:13.261Z,10.90
2018-12-30T08:26:44.598Z,11.10
2018-12-30T08:29:16.100Z,11.30
2018-12-30T08:31:47.698Z,11.30
2018-12-30T08:34:24.318Z,11.20
2018-12-30T08:36:56.607Z,11.80
2018-12-30T08:39:30.302Z,11.70
2018-12-30T08:42:01.851Z,11.60
2018-12-30T08:44:33.097Z,11.80
2018-12-30T08:47:04.411Z,12.30
2018-12-30T08:49:37.067Z,12.20
2018-12-30T08:52:08.585Z,11.50
2018-12-30T08:54:39.825Z,12.40
2018-12-30T08:57:11.099Z,12.50
2018-12-30T08:59:42.674Z,12.60
2018-12-30T09:02:13.945Z,13.10
2018-12-30T09:04:48.315Z,12.70
2018-12-30T09:07:20.141Z,13.40
2018-12-30T09:09:51.395Z,14.00
2018-12-30T09:12:22.699Z,13.60
2018-12-30T09:14:53.988Z,13.90
2018-12-30T09:17:25.390Z,14.30
2018-12-30T09:19:57.115Z,14.50
2018-12-30T09:22:28.566Z,14.20
2018-12-30T09:25:00.168Z,14.40
2018-12-30T09:27:32.821Z,14.00
2018-12-30T09:30:04.330Z,14.30
2018-12-30T09:32:35.489Z,14.00
2018-12-30T09:35:06.964Z,14.50
2018-12-30T09:37:38.253Z,14.20
2018-12-30T09:40:10.087Z,13.10
2018-12-30T09:42:41.364Z,12.00
2018-12-30T09:45:12.680Z,11.60
2018-12-30T09:47:44.918Z,11.70
2018-12-30T09:50:16.330Z,12.10
2018-12-30T09:52:48.181Z,12.40
2018-12-30T09:55:19.622Z,12.70
2018-12-30T09:57:50.841Z,13.40
2018-12-30T10:00:23.173Z,13.30
2018-12-30T10:02:54.670Z,14.00
2018-12-30T10:05:26.081Z,14.50
2018-12-30T10:07:57.475Z,13.70
2018-12-30T10:10:28.881Z,13.60
2018-12-30T10:13:00.081Z,13.50
2018-12-30T10:15:31.647Z,13.20
2018-12-30T10:18:03.238Z,12.30
2018-12-30T10:20:34.615Z,11.60
2018-12-30T10:23:06.504Z,11.10
2018-12-30T10:25:37.854Z,10.80
2018-12-30T10:28:09.222Z,10.60
2018-12-30T10:30:40.583Z,10.30
2018-12-30T10:33:11.799Z,10.00
2018-12-30T10:35:43.998Z,9.50
2018-12-30T10:38:15.263Z,9.20
2018-12-30T10:40:46.739Z,8.80
2018-12-30T10:43:18.400Z,8.80
2018-12-30T10:45:49.923Z,8.50
2018-12-30T10:48:21.467Z,8.40
2018-12-30T10:50:52.828Z,8.30
2018-12-30T10:53:24.060Z,8.20
2018-12-30T10:55:56.852Z,8.00
2018-12-30T10:58:28.224Z,7.90
2018-12-30T11:00:59.545Z,7.90
2018-12-30T11:03:31.863Z,7.70
2018-12-30T11:06:03.213Z,7.70
2018-12-30T11:08:35.683Z,7.60
2018-12-30T11:11:07.566Z,7.60
2018-12-30T11:13:38.837Z,7.50
2018-12-30T11:16:11.155Z,7.50
2018-12-30T11:18:43.634Z,7.60
2018-12-30T11:21:15.004Z,7.60
2018-12-30T11:23:47.219Z,7.60
2018-12-30T11:26:18.592Z,7.60
2018-12-30T11:28:50.969Z,7.60
2018-12-30T11:31:22.309Z,7.60
2018-12-30T11:33:53.785Z,7.60
2018-12-30T11:36:25.110Z,7.60
2018-12-30T11:38:56.479Z,7.60
2018-12-30T11:41:29.231Z,7.70
2018-12-30T11:44:00.929Z,7.70
2018-12-30T11:46:32.134Z,7.80
2018-12-30T11:49:04.550Z,7.80
2018-12-30T11:51:36.114Z,7.80
2018-12-30T11:54:07.282Z,7.90
2018-12-30T11:56:38.644Z,7.90
2018-12-30T11:59:10.002Z,7.90
2018-12-30T12:01:41.327Z,8.00
2018-12-30T12:04:12.748Z,8.20
2018-12-30T12:06:44.158Z,8.30
2018-12-30T12:09:15.748Z,8.40
2018-12-30T12:11:48.093Z,8.50
2018-12-30T12:14:19.361Z,8.60
2018-12-30T12:16:50.790Z,8.50
2018-12-30T12:19:21.900Z,8.50
2018-12-30T12:21:53.187Z,8.40
2018-12-30T12:24:25.325Z,8.40
2018-12-30T12:26:57.535Z,8.40
2018-12-30T12:29:29.235Z,8.40
2018-12-30T12:32:00.631Z,8.30
2018-12-30T12:34:32.122Z,8.40
2018-12-30T12:37:03.531Z,8.40
2018-12-30T12:39:35.040Z,8.40
2018-12-30T12:42:06.592Z,8.50
2018-12-30T12:44:38.089Z,8.50
2018-12-30T12:47:09.451Z,8.60
2018-12-30T12:49:41.020Z,8.50
2018-12-30T12:52:12.380Z,8.50
2018-12-30T12:54:44.008Z,8.50
2018-12-30T12:57:15.112Z,8.40
2018-12-30T12:59:46.269Z,8.40
2018-12-30T13:02:17.718Z,8.40
2018-12-30T13:04:49.199Z,8.30
2018-12-30T13:07:20.290Z,8.30
2018-12-30T13:09:51.835Z,8.30
2018-12-30T13:12:23.334Z,8.30
2018-12-30T13:14:54.560Z,8.40
2018-12-30T13:17:26.144Z,8.40
2018-12-30T13:19:57.660Z,8.40
2018-12-30T13:22:28.924Z,8.40
2018-12-30T13:25:00.342Z,8.50
2018-12-30T13:27:31.644Z,8.50
2018-12-30T13:30:03.060Z,8.40
2018-12-30T13:32:34.135Z,8.40
2018-12-30T13:35:05.581Z,8.40
2018-12-30T13:37:37.132Z,8.40
2018-12-30T13:40:08.598Z,8.40
2018-12-30T13:42:41.175Z,8.40
2018-12-30T13:45:11.658Z,8.40
2018-12-30T13:47:43.217Z,8.30
2018-12-30T13:50:14.650Z,8.30
2018-12-30T13:52:45.972Z,8.30
2018-12-30T13:55:18.530Z,8.20
2018-12-30T13:57:50.463Z,8.20
2018-12-30T14:00:21.827Z,8.10
2018-12-30T14:02:53.310Z,8.10
2018-12-30T14:05:24.624Z,8.10
2018-12-30T14:07:55.908Z,8.00
2018-12-30T14:10:28.304Z,8.00
2018-12-30T14:12:59.716Z,7.90
2018-12-30T14:15:31.076Z,7.80
2018-12-30T14:18:02.379Z,7.80
2018-12-30T14:20:33.728Z,7.70
2018-12-30T14:23:05.226Z,7.80
2018-12-30T14:25:36.629Z,7.80
2018-12-30T14:28:08.386Z,7.70
2018-12-30T14:30:39.798Z,7.60
2018-12-30T14:33:12.370Z,7.60
2018-12-30T14:35:45.086Z,7.40
2018-12-30T14:38:16.445Z,7.40
2018-12-30T14:40:48.395Z,7.30
2018-12-30T14:43:20.175Z,7.20
2018-12-30T14:45:51.558Z,7.00
2018-12-30T14:48:28.089Z,6.80
2018-12-30T14:51:01.176Z,6.80
2018-12-30T14:53:32.287Z,6.80
2018-12-30T14:56:03.644Z,6.80
2018-12-30T14:58:35.883Z,6.70
2018-12-30T15:01:14.621Z,6.70
2018-12-30T15:03:40.277Z,6.70
2018-12-30T15:06:11.836Z,6.80
2018-12-30T15:08:43.104Z,6.70
2018-12-30T15:11:14.493Z,6.60
2018-12-30T15:13:45.818Z,6.50
2018-12-30T15:16:17.310Z,6.30
2018-12-30T15:18:48.616Z,6.20
2018-12-30T15:21:20.077Z,6.20
2018-12-30T15:23:51.862Z,6.20
2018-12-30T15:26:23.522Z,6.30
2018-12-30T15:28:55.990Z,6.40
2018-12-30T15:31:27.196Z,6.40
2018-12-30T15:33:58.928Z,6.50
2018-12-30T15:36:30.233Z,6.50
2018-12-30T15:39:01.703Z,6.40
2018-12-30T15:41:34.427Z,6.20
2018-12-30T15:44:05.898Z,6.10
2018-12-30T15:46:37.343Z,5.90
2018-12-30T15:49:08.850Z,5.90
2018-12-30T15:51:40.562Z,5.90
2018-12-30T15:54:11.716Z,5.90
2018-12-30T15:56:43.150Z,5.90
2018-12-30T15:59:14.487Z,5.90
2018-12-30T16:01:46.613Z,5.80
2018-12-30T16:04:17.935Z,5.80
2018-12-30T16:06:49.194Z,5.70
2018-12-30T16:09:20.568Z,5.70
2018-12-30T16:11:52.048Z,5.70
2018-12-30T16:14:23.301Z,5.60
2018-12-30T16:16:54.554Z,5.60
2018-12-30T16:19:25.913Z,5.70
2018-12-30T16:21:57.410Z,5.60
2018-12-30T16:24:28.598Z,5.60
2018-12-30T16:26:59.842Z,5.60
2018-12-30T16:29:31.244Z,5.60
2018-12-30T16:32:02.812Z,5.50
2018-12-30T16:34:34.339Z,5.40
2018-12-30T16:37:05.594Z,5.40
2018-12-30T16:39:36.835Z,5.40
2018-12-30T16:42:08.880Z,5.30
2018-12-30T16:44:41.823Z,5.30
2018-12-30T16:47:13.693Z,5.30
2018-12-30T16:49:45.191Z,5.20
2018-12-30T16:52:16.624Z,5.20
2018-12-30T16:54:47.962Z,5.10
2018-12-30T16:57:18.987Z,5.00
2018-12-30T16:59:50.469Z,4.90
2018-12-30T17:02:22.109Z,4.80
2018-12-30T17:04:53.527Z,4.70
2018-12-30T17:07:26.169Z,4.60
2018-12-30T17:10:17.866Z,4.50
2018-12-30T17:12:48.902Z,4.40
2018-12-30T17:15:20.443Z,4.40
2018-12-30T17:17:53.427Z,4.30
2018-12-30T17:20:24.846Z,4.30
2018-12-30T17:22:56.394Z,4.30
2018-12-30T17:25:27.643Z,4.20
2018-12-30T17:27:58.949Z,4.20
2018-12-30T17:30:30.506Z,4.20
2018-12-30T17:33:02.093Z,4.10
2018-12-30T17:35:33.513Z,4.10
2018-12-30T17:38:05.010Z,4.20
2018-12-30T17:40:38.709Z,4.10
2018-12-30T17:43:09.592Z,4.10
2018-12-30T17:45:40.984Z,4.10
2018-12-30T17:48:12.667Z,4.00
2018-12-30T17:50:44.048Z,4.10
2018-12-30T17:53:15.492Z,4.00
2018-12-30T17:55:50.978Z,4.00
2018-12-30T17:58:20.749Z,4.00
2018-12-30T18:00:52.023Z,3.90
2018-12-30T18:03:23.637Z,3.80
2018-12-30T18:05:54.980Z,3.80
2018-12-30T18:08:26.493Z,3.70
2018-12-30T18:10:58.510Z,3.70
2018-12-30T18:13:29.615Z,3.70
2018-12-30T18:16:00.923Z,3.70
2018-12-30T18:18:32.392Z,3.70
2018-12-30T18:21:04.352Z,3.70
2018-12-30T18:23:35.931Z,3.70
2018-12-30T18:26:07.127Z,3.70
2018-12-30T18:28:38.726Z,3.70
2018-12-30T18:31:09.735Z,3.70
2018-12-30T18:33:41.424Z,3.70
2018-12-30T18:36:12.820Z,3.60
2018-12-30T18:38:44.212Z,3.50
2018-12-30T18:41:15.675Z,3.50
2018-12-30T18:43:47.084Z,3.50
2018-12-30T18:46:19.264Z,3.50
2018-12-30T18:48:50.751Z,3.50
2018-12-30T18:51:22.002Z,3.40
2018-12-30T18:53:53.591Z,3.50
2018-12-30T18:56:25.412Z,3.50
2018-12-30T18:58:56.805Z,3.40
2018-12-30T19:01:28.211Z,3.30
2018-12-30T19:03:59.621Z,3.20
2018-12-30T19:06:30.837Z,3.20
2018-12-30T19:09:02.363Z,3.10
2018-12-30T19:11:34.574Z,3.10
2018-12-30T19:14:05.976Z,3.00
2018-12-30T19:16:37.279Z,3.00
2018-12-30T19:19:08.655Z,2.90
2018-12-30T19:21:39.787Z,2.90
2018-12-30T19:24:11.085Z,2.90
2018-12-30T19:26:44.283Z,2.90
2018-12-30T19:29:15.735Z,2.90
2018-12-30T19:31:48.365Z,2.90
2018-12-30T19:34:20.359Z,2.90
2018-12-30T19:36:51.683Z,2.80
2018-12-30T19:39:23.430Z,2.80
2018-12-30T19:41:54.912Z,2.70
2018-12-30T19:44:26.383Z,2.70
2018-12-30T19:46:57.983Z,2.70
2018-12-30T19:49:29.098Z,2.70
2018-12-30T19:52:00.734Z,3.00
2018-12-30T19:54:32.071Z,3.50
2018-12-30T19:57:03.379Z,3.70
2018-12-30T19:59:35.102Z,3.70
2018-12-30T20:02:06.363Z,3.70
2018-12-30T20:04:40.793Z,3.60
2018-12-30T20:07:10.886Z,3.40
2018-12-30T20:09:42.242Z,3.20
2018-12-30T20:12:13.798Z,3.00
2018-12-30T20:14:45.231Z,2.90
2018-12-30T20:17:16.583Z,2.80
2018-12-30T20:19:48.188Z,2.70
2018-12-30T20:22:19.376Z,2.60
2018-12-30T20:24:50.751Z,2.50
2018-12-30T20:27:23.441Z,2.50
2018-12-30T20:29:54.934Z,2.40
2018-12-30T20:32:26.307Z,2.40
2018-12-30T20:34:57.617Z,2.40
2018-12-30T20:37:28.824Z,2.30
2018-12-30T20:40:00.975Z,2.20
2018-12-30T20:42:32.363Z,2.20
2018-12-30T20:45:04.853Z,2.20
2018-12-30T20:47:36.558Z,2.20
2018-12-30T20:50:09.177Z,2.20
2018-12-30T20:52:40.566Z,2.10
2018-12-30T20:55:12.390Z,2.10
2018-12-30T20:57:43.834Z,2.10
2018-12-30T21:00:15.614Z,2.10
2018-12-30T21:02:47.561Z,2.10
2018-12-30T21:05:19.739Z,2.10
2018-12-30T21:07:51.197Z,2.20
2018-12-30T21:10:22.741Z,2.20
2018-12-30T21:12:54.115Z,2.20
2018-12-30T21:15:25.503Z,2.20
2018-12-30T21:17:57.649Z,2.10
2018-12-30T21:20:29.154Z,2.10
2018-12-30T21:23:12.676Z,2.10
2018-12-30T21:25:44.196Z,2.10
2018-12-30T21:28:15.575Z,2.10
2018-12-30T21:30:46.922Z,2.10
2018-12-30T21:33:18.282Z,2.10
2018-12-30T21:35:49.726Z,2.10
2018-12-30T21:38:21.149Z,2.10
2018-12-30T21:40:52.389Z,2.20
2018-12-30T21:43:23.615Z,2.20
2018-12-30T21:45:54.974Z,2.30
2018-12-30T21:48:26.836Z,2.30
2018-12-30T21:50:58.392Z,2.30
2018-12-30T21:53:29.789Z,2.20
2018-12-30T21:56:01.248Z,2.20
2018-12-30T21:58:32.616Z,2.10
2018-12-30T22:01:03.910Z,2.00
2018-12-30T22:03:35.027Z,2.00
2018-12-30T22:06:07.204Z,2.00
2018-12-30T22:08:38.543Z,2.00
2018-12-30T22:11:10.321Z,2.00
2018-12-30T22:13:41.944Z,2.10
2018-12-30T22:16:13.380Z,2.10
2018-12-30T22:18:44.703Z,2.10
2018-12-30T22:21:16.140Z,2.10
2018-12-30T22:23:47.623Z,2.00
2018-12-30T22:26:19.140Z,1.90
2018-12-30T22:28:50.912Z,1.80
2018-12-30T22:31:22.521Z,1.80
2018-12-30T22:33:53.867Z,1.80
2018-12-30T22:36:25.339Z,1.80
2018-12-30T22:38:56.772Z,1.80
2018-12-30T22:41:28.176Z,1.70
2018-12-30T22:43:59.998Z,1.70
2018-12-30T22:46:31.171Z,1.70
2018-12-30T22:49:02.318Z,1.70
2018-12-30T22:51:34.323Z,1.70
2018-12-30T22:54:05.649Z,1.70
2018-12-30T22:56:37.839Z,1.80
2018-12-30T22:59:09.185Z,1.70
2018-12-30T23:01:43.131Z,1.70
2018-12-30T23:04:14.400Z,1.70
2018-12-30T23:06:45.539Z,1.70
2018-12-30T23:09:35.595Z,1.60
2018-12-30T23:12:07.208Z,1.70
2018-12-30T23:14:38.586Z,1.70
2018-12-30T23:17:10.206Z,1.60
2018-12-30T23:19:41.478Z,1.60
2018-12-30T23:22:13.534Z,1.60
2018-12-30T23:24:44.867Z,1.70
2018-12-30T23:27:17.287Z,1.60
2018-12-30T23:29:48.755Z,1.60
2018-12-30T23:32:20.097Z,1.60
2018-12-30T23:34:51.492Z,1.60
2018-12-30T23:37:23.062Z,1.60
2018-12-30T23:39:54.350Z,1.60
2018-12-30T23:42:26.518Z,1.50
2018-12-30T23:44:57.871Z,1.50
2018-12-30T23:47:29.194Z,1.50
2018-12-30T23:50:00.648Z,1.60
2018-12-30T23:52:32.125Z,1.60
2018-12-30T23:55:03.590Z,1.70
2018-12-30T23:57:34.845Z,1.70
